KRDK

Details ICAO KRDK
Name Red Oak Municipal
Region United States
Timezone America/Chicago (UTC-6.0)
Plans Departing 4
Arriving 0
Stats Elevation 1,044 ft / 318 m (AMSL)
Location 41.010934° -95.258670°
Runways 3
Magnetic Variation 2.065° E
Sunrise 2017-12-15 13:40:28 UTC / 2017-12-15 07:40:28 Local
Sunset 2017-12-15 22:54:56 UTC / 2017-12-15 16:54:56 Local
Advertisement - Login to hide

Runways

ID Width Length Bearing (true) Bearing (mag) Surface Threshold Offset Overrun Length
05 75 ft / 23 m 5,105 ft / 1,556 m 57.79° 55.72° Concrete 1,001 ft / 305 m 0 ft / 0 m
13 210 ft / 64 m 2,052 ft / 625 m 141.64° 139.57° Grass 0 ft / 0 m 0 ft / 0 m
17 59 ft / 18 m 2,904 ft / 885 m 174.43° 172.36° Concrete 0 ft / 0 m 449 ft / 137 m
23 75 ft / 23 m 5,105 ft / 1,556 m 237.80° 235.73° Concrete 0 ft / 0 m 0 ft / 0 m
31 210 ft / 64 m 2,052 ft / 625 m 321.64° 319.57° Grass 0 ft / 0 m 0 ft / 0 m
35 59 ft / 18 m 2,904 ft / 885 m 354.43° 352.36° Concrete 0 ft / 0 m 299 ft / 91 m

Map

Weather


0- 5 10 15 20 25 30 35+ Temperature / ° C

Clouds and Precipitation
Forecast for 2017-12-15 18:00 UTC. Updated an hour ago

Ground ~20,000 ft ~40,000 ft Winds

METAR

KRDK 151815Z AUTO 23020G27KT 10SM CLR 07/M05 A2998 RMK AO2

TAF

Not found

Frequencies

Recorded 119.77 MHz AWOS 3
Unicom 122.80 MHz CTAF
Warning: Do not use this data for real-world aviation or navigation. No guarantee of current accuracy is given.